createdAt,value
2023-05-09T00:00:54.293Z,5.10
2023-05-09T00:03:21.342Z,5.03
2023-05-09T00:05:49.056Z,4.43
2023-05-09T00:08:16.177Z,6.47
2023-05-09T00:10:43.586Z,4.05
2023-05-09T00:13:10.736Z,4.03
2023-05-09T00:15:37.986Z,3.80
2023-05-09T00:18:05.173Z,6.32
2023-05-09T00:20:34.215Z,6.18
2023-05-09T00:23:01.202Z,4.53
2023-05-09T00:25:28.531Z,4.70
2023-05-09T00:27:55.536Z,4.85
2023-05-09T00:30:22.524Z,4.93
2023-05-09T00:32:49.713Z,5.20
2023-05-09T00:35:17.071Z,4.32
2023-05-09T00:37:44.163Z,5.35
2023-05-09T00:40:11.738Z,4.63
2023-05-09T00:42:38.792Z,5.00
2023-05-09T00:45:07.225Z,7.32
2023-05-09T00:47:34.985Z,5.57
2023-05-09T00:50:02.637Z,4.35
2023-05-09T00:52:30.366Z,4.57
2023-05-09T00:54:57.221Z,4.55
2023-05-09T00:57:42.481Z,5.07
2023-05-09T01:00:29.541Z,4.10
2023-05-09T01:03:16.679Z,4.93
2023-05-09T01:05:55.201Z,7.00
2023-05-09T01:08:37.781Z,5.43
2023-05-09T01:11:23.307Z,4.70
2023-05-09T01:14:13.868Z,5.55
2023-05-09T01:17:14.731Z,4.70
2023-05-09T01:19:57.243Z,4.63
2023-05-09T01:22:30.434Z,5.13
2023-05-09T01:24:57.408Z,6.40
2023-05-09T01:27:33.347Z,7.90
2023-05-09T01:30:04.804Z,4.95
2023-05-09T01:32:35.691Z,5.47
2023-05-09T01:35:05.362Z,5.40
2023-05-09T01:37:35.803Z,5.35
2023-05-09T01:40:30.743Z,5.55
2023-05-09T01:43:05.684Z,4.55
2023-05-09T01:45:34.382Z,4.10
2023-05-09T01:48:02.607Z,3.80
2023-05-09T01:50:30.902Z,4.75
2023-05-09T01:53:00.434Z,3.92
2023-05-09T01:55:29.423Z,7.47
2023-05-09T01:57:59.080Z,4.38
2023-05-09T02:00:27.314Z,4.90
2023-05-09T02:02:56.336Z,5.85
2023-05-09T02:05:28.426Z,6.78
2023-05-09T02:07:59.776Z,7.68
2023-05-09T02:10:30.905Z,5.05
2023-05-09T02:12:58.157Z,6.15
2023-05-09T02:15:26.365Z,6.35
2023-05-09T02:17:53.447Z,4.97
2023-05-09T02:20:20.535Z,5.53
2023-05-09T02:22:48.156Z,6.18
2023-05-09T02:25:15.829Z,5.45
2023-05-09T02:27:47.145Z,5.28
2023-05-09T02:30:23.582Z,5.18
2023-05-09T02:32:53.722Z,4.88
2023-05-09T02:35:23.116Z,4.10
2023-05-09T02:37:50.144Z,6.88
2023-05-09T02:40:18.470Z,6.07
2023-05-09T02:42:45.548Z,4.80
2023-05-09T02:45:12.583Z,4.15
2023-05-09T02:47:39.871Z,5.32
2023-05-09T02:50:07.420Z,5.47
2023-05-09T02:52:34.536Z,6.32
2023-05-09T02:55:03.605Z,5.93
2023-05-09T02:57:31.162Z,6.40
2023-05-09T02:59:58.153Z,10.63
2023-05-09T03:02:25.183Z,5.72
2023-05-09T03:04:52.437Z,4.78
2023-05-09T03:07:19.414Z,4.90
2023-05-09T03:09:46.365Z,7.40
2023-05-09T03:12:13.310Z,5.25
2023-05-09T03:14:40.391Z,4.22
2023-05-09T03:17:07.426Z,5.10
2023-05-09T03:19:34.415Z,8.68
2023-05-09T03:22:01.486Z,6.43
2023-05-09T03:24:28.479Z,6.00
2023-05-09T03:26:55.552Z,5.15
2023-05-09T03:29:22.545Z,7.60
2023-05-09T03:31:49.649Z,5.72
2023-05-09T03:34:16.693Z,5.93
2023-05-09T03:36:44.467Z,9.07
2023-05-09T03:39:11.782Z,5.82
2023-05-09T03:41:38.786Z,6.80
2023-05-09T03:44:06.049Z,5.72
2023-05-09T03:46:33.049Z,5.60
2023-05-09T03:49:00.027Z,6.00
2023-05-09T03:51:27.117Z,8.02
2023-05-09T03:53:54.047Z,7.53
2023-05-09T03:56:21.109Z,6.32
2023-05-09T03:58:48.456Z,7.03
2023-05-09T04:01:16.025Z,6.63
2023-05-09T04:03:43.291Z,5.38
2023-05-09T04:06:10.371Z,4.53
2023-05-09T04:08:37.481Z,5.28
2023-05-09T04:11:04.469Z,6.72
2023-05-09T04:13:33.136Z,6.82
2023-05-09T04:16:00.172Z,6.60
2023-05-09T04:18:27.254Z,6.93
2023-05-09T04:20:54.351Z,7.18
2023-05-09T04:23:21.330Z,7.07
2023-05-09T04:25:51.477Z,7.13
2023-05-09T04:28:18.435Z,6.60
2023-05-09T04:30:45.951Z,5.97
2023-05-09T04:33:13.278Z,5.22
2023-05-09T04:35:41.384Z,8.77
2023-05-09T04:38:08.546Z,6.35
2023-05-09T04:40:35.789Z,5.00
2023-05-09T04:43:03.426Z,6.15
2023-05-09T04:45:30.481Z,5.90
2023-05-09T04:47:57.552Z,6.93
2023-05-09T04:50:24.858Z,7.05
2023-05-09T04:52:51.880Z,5.53
2023-05-09T04:55:18.821Z,7.60
2023-05-09T04:57:45.797Z,6.30
2023-05-09T05:00:13.355Z,9.00
2023-05-09T05:02:40.345Z,6.65
2023-05-09T05:05:12.021Z,9.30
2023-05-09T05:07:39.783Z,7.55
2023-05-09T05:10:07.233Z,7.20
2023-05-09T05:12:34.386Z,7.45
2023-05-09T05:15:01.343Z,7.35
2023-05-09T05:17:29.747Z,8.05
2023-05-09T05:19:56.838Z,7.15
2023-05-09T05:22:24.446Z,6.80
2023-05-09T05:24:51.438Z,10.45
2023-05-09T05:27:18.527Z,5.93
2023-05-09T05:29:45.524Z,7.25
2023-05-09T05:32:12.702Z,7.10
2023-05-09T05:34:39.892Z,6.00
2023-05-09T05:37:06.845Z,5.85
2023-05-09T05:39:33.950Z,11.43
2023-05-09T05:42:00.894Z,6.93
2023-05-09T05:44:27.839Z,5.97
2023-05-09T05:46:54.859Z,7.45
2023-05-09T05:49:21.996Z,9.88
2023-05-09T05:51:48.998Z,9.98
2023-05-09T05:54:15.928Z,7.00
2023-05-09T05:56:42.948Z,6.75
2023-05-09T05:59:11.347Z,11.65
2023-05-09T06:01:40.170Z,7.63
2023-05-09T06:04:07.321Z,8.00
2023-05-09T06:06:34.734Z,7.63
2023-05-09T06:09:01.673Z,7.50
2023-05-09T06:11:29.130Z,8.65
2023-05-09T06:13:56.214Z,7.85
2023-05-09T06:16:23.386Z,8.48
2023-05-09T06:18:50.946Z,7.00
2023-05-09T06:21:18.819Z,8.02
2023-05-09T06:26:15.954Z,6.78
2023-05-09T06:28:42.931Z,8.57
2023-05-09T06:31:10.047Z,8.07
2023-05-09T06:33:37.144Z,7.15
2023-05-09T06:36:04.397Z,10.48
2023-05-09T06:38:31.434Z,9.88
2023-05-09T06:40:58.428Z,8.55
2023-05-09T06:43:25.356Z,8.75
2023-05-09T06:45:52.533Z,8.75
2023-05-09T06:48:19.551Z,6.90
2023-05-09T06:50:46.683Z,6.82
2023-05-09T06:53:13.822Z,7.60
2023-05-09T06:55:41.083Z,7.47
2023-05-09T06:58:08.144Z,9.35
2023-05-09T07:00:35.807Z,9.88
2023-05-09T07:03:02.940Z,8.20
2023-05-09T07:05:30.114Z,8.02
2023-05-09T07:07:57.201Z,7.55
2023-05-09T07:10:24.516Z,7.72
2023-05-09T07:12:51.774Z,9.25
2023-05-09T07:15:28.644Z,9.77
2023-05-09T07:17:59.783Z,9.18
2023-05-09T07:20:26.839Z,9.88
2023-05-09T07:22:53.837Z,8.82
2023-05-09T07:25:20.964Z,8.65
2023-05-09T07:27:47.963Z,8.32
2023-05-09T07:30:15.293Z,8.07
2023-05-09T07:32:42.444Z,9.63
2023-05-09T07:35:09.430Z,9.27
2023-05-09T07:37:36.892Z,8.15
2023-05-09T07:40:06.125Z,8.75
2023-05-09T07:42:33.354Z,7.13
2023-05-09T07:45:00.547Z,8.73
2023-05-09T07:47:27.673Z,12.65
2023-05-09T07:49:54.677Z,9.98
2023-05-09T07:52:21.691Z,10.73
2023-05-09T07:54:48.858Z,8.15
2023-05-09T07:57:16.678Z,10.30
2023-05-09T07:59:43.672Z,11.68
2023-05-09T08:02:10.982Z,11.32
2023-05-09T08:04:38.960Z,10.60
2023-05-09T08:07:07.432Z,9.55
2023-05-09T08:09:34.783Z,9.68
2023-05-09T08:12:01.776Z,9.10
2023-05-09T08:14:29.110Z,11.90
2023-05-09T08:16:56.123Z,11.02
2023-05-09T08:19:26.380Z,13.65
2023-05-09T08:21:53.573Z,9.52
2023-05-09T08:24:20.675Z,10.68
2023-05-09T08:26:47.702Z,10.55
2023-05-09T08:29:14.929Z,10.82
2023-05-09T08:31:42.153Z,9.30
2023-05-09T08:34:09.599Z,9.98
2023-05-09T08:36:36.600Z,10.07
2023-05-09T08:39:03.714Z,10.93
2023-05-09T08:41:36.245Z,13.05
2023-05-09T08:44:04.333Z,12.50
2023-05-09T08:46:36.936Z,9.95
2023-05-09T08:49:07.425Z,12.88
2023-05-09T08:51:36.032Z,12.57
2023-05-09T08:54:03.590Z,11.40
2023-05-09T08:56:31.692Z,10.38
2023-05-09T08:58:59.196Z,13.35
2023-05-09T09:01:29.538Z,11.40
2023-05-09T09:03:56.711Z,13.73
2023-05-09T09:06:25.922Z,10.32
2023-05-09T09:08:55.171Z,12.93
2023-05-09T09:11:22.911Z,12.90
2023-05-09T09:13:52.944Z,11.35
2023-05-09T09:16:23.138Z,11.68
2023-05-09T09:18:52.423Z,13.60
2023-05-09T09:21:20.482Z,11.90
2023-05-09T09:23:49.000Z,14.82
2023-05-09T09:26:16.649Z,11.98
2023-05-09T09:28:43.895Z,10.95
2023-05-09T09:31:28.582Z,12.52
2023-05-09T09:34:03.332Z,12.48
2023-05-09T09:36:32.604Z,10.30
2023-05-09T09:39:01.247Z,11.45
2023-05-09T09:41:35.583Z,10.95
2023-05-09T09:44:14.241Z,13.02
2023-05-09T09:46:56.648Z,11.93
2023-05-09T09:49:25.657Z,10.70
2023-05-09T09:51:59.373Z,10.93
2023-05-09T09:54:28.104Z,12.95
2023-05-09T09:56:56.774Z,11.80
2023-05-09T09:59:26.176Z,11.38
2023-05-09T10:01:54.632Z,13.05
2023-05-09T10:04:22.027Z,12.13
2023-05-09T10:06:57.482Z,13.23
2023-05-09T10:09:25.566Z,11.23
2023-05-09T10:11:53.630Z,11.93
2023-05-09T10:14:24.181Z,12.43
2023-05-09T10:16:58.723Z,11.07
2023-05-09T10:19:27.531Z,11.38
2023-05-09T10:21:57.027Z,11.43
2023-05-09T10:24:35.625Z,10.52
2023-05-09T10:27:07.080Z,11.93
2023-05-09T10:29:41.613Z,11.32
2023-05-09T10:32:31.551Z,10.63
2023-05-09T10:35:04.840Z,14.18
2023-05-09T10:37:33.542Z,12.70
2023-05-09T10:40:05.251Z,11.60
2023-05-09T10:42:32.720Z,14.98
2023-05-09T10:44:59.947Z,13.80
2023-05-09T10:47:28.233Z,10.68
2023-05-09T10:49:56.108Z,13.27
2023-05-09T10:52:23.817Z,11.05
2023-05-09T10:55:01.865Z,12.07
2023-05-09T10:57:30.473Z,13.32
2023-05-09T10:59:58.430Z,11.60
2023-05-09T11:02:29.588Z,10.40
2023-05-09T11:05:19.430Z,12.05
2023-05-09T11:07:46.542Z,10.05
2023-05-09T11:10:18.554Z,10.65
2023-05-09T11:12:59.659Z,15.85
2023-05-09T11:15:30.088Z,12.20
2023-05-09T11:18:07.171Z,10.95
2023-05-09T11:20:35.913Z,11.43
2023-05-09T11:23:07.043Z,10.23
2023-05-09T11:25:34.079Z,10.60
2023-05-09T11:28:02.124Z,11.35
2023-05-09T11:30:40.029Z,11.07
2023-05-09T11:33:07.388Z,11.88
2023-05-09T11:35:38.735Z,11.60
2023-05-09T11:38:06.845Z,11.25
2023-05-09T11:40:35.012Z,9.07
2023-05-09T11:43:02.235Z,10.38
2023-05-09T11:45:31.243Z,12.25
2023-05-09T11:47:59.129Z,14.75
2023-05-09T11:50:26.462Z,11.32
2023-05-09T11:52:54.431Z,13.65
2023-05-09T11:55:23.115Z,9.73
2023-05-09T11:57:52.697Z,11.35
2023-05-09T12:00:25.018Z,10.52
2023-05-09T12:02:53.565Z,13.55
2023-05-09T12:05:23.057Z,11.38
2023-05-09T12:07:50.359Z,9.55
2023-05-09T12:10:20.280Z,8.00
2023-05-09T12:12:49.043Z,8.98
2023-05-09T12:15:17.684Z,10.38
2023-05-09T12:17:48.158Z,9.05
2023-05-09T12:20:16.649Z,9.40
2023-05-09T12:22:44.143Z,8.75
2023-05-09T12:25:12.408Z,8.55
2023-05-09T12:27:41.217Z,11.48
2023-05-09T12:30:10.994Z,9.48
2023-05-09T12:32:40.590Z,9.18
2023-05-09T12:35:09.759Z,8.55
2023-05-09T12:37:36.973Z,11.20
2023-05-09T12:40:13.066Z,8.27
2023-05-09T12:42:44.660Z,8.32
2023-05-09T12:45:12.240Z,10.20
2023-05-09T12:47:39.552Z,9.57
2023-05-09T12:50:08.373Z,12.00
2023-05-09T12:52:41.732Z,9.35
2023-05-09T12:55:19.153Z,10.20
2023-05-09T12:57:58.306Z,8.20
2023-05-09T13:00:25.648Z,7.90
2023-05-09T13:02:53.123Z,10.38
2023-05-09T13:05:22.315Z,10.90
2023-05-09T13:07:52.520Z,8.57
2023-05-09T13:10:24.109Z,9.70
2023-05-09T13:12:51.889Z,10.27
2023-05-09T13:15:21.008Z,8.75
2023-05-09T13:17:49.205Z,8.45
2023-05-09T13:20:17.341Z,10.20
2023-05-09T13:22:45.558Z,8.57
2023-05-09T13:25:13.150Z,9.30
2023-05-09T13:27:40.134Z,8.05
2023-05-09T13:30:07.943Z,7.40
2023-05-09T13:32:36.869Z,8.30
2023-05-09T13:35:09.639Z,8.80
2023-05-09T13:37:36.656Z,8.25
2023-05-09T13:40:04.446Z,11.27
2023-05-09T13:42:34.468Z,8.57
2023-05-09T13:45:01.547Z,8.98
2023-05-09T13:47:28.804Z,11.02
2023-05-09T13:49:55.799Z,8.05
2023-05-09T13:52:23.360Z,8.60
2023-05-09T13:54:50.367Z,8.43
2023-05-09T13:57:17.289Z,9.38
2023-05-09T13:59:44.341Z,9.10
2023-05-09T14:02:11.768Z,10.82
2023-05-09T14:04:39.350Z,9.80
2023-05-09T14:07:07.138Z,7.97
2023-05-09T14:09:40.283Z,11.45
2023-05-09T14:12:07.409Z,7.32
2023-05-09T14:14:34.405Z,6.45
2023-05-09T14:17:01.659Z,6.53
2023-05-09T14:19:33.184Z,9.30
2023-05-09T14:22:00.159Z,7.35
2023-05-09T14:24:30.921Z,10.07
2023-05-09T14:26:58.020Z,7.22
2023-05-09T14:29:25.031Z,7.03
2023-05-09T14:31:52.166Z,7.97
2023-05-09T14:34:19.472Z,6.95
2023-05-09T14:36:46.513Z,8.88
2023-05-09T14:39:13.511Z,9.18
2023-05-09T14:41:40.560Z,8.40
2023-05-09T14:44:07.580Z,11.75
2023-05-09T14:46:34.657Z,9.30
2023-05-09T14:49:04.385Z,7.60
2023-05-09T14:51:31.975Z,8.38
2023-05-09T14:53:59.505Z,8.63
2023-05-09T14:56:26.993Z,8.00
2023-05-09T14:58:53.988Z,7.90
2023-05-09T15:01:21.551Z,9.55
2023-05-09T15:03:48.516Z,7.38
2023-05-09T15:06:15.750Z,8.05
2023-05-09T15:08:42.868Z,8.73
2023-05-09T15:11:09.852Z,6.25
2023-05-09T15:13:37.001Z,6.65
2023-05-09T15:16:05.210Z,7.85
2023-05-09T15:18:33.718Z,8.05
2023-05-09T15:21:01.078Z,7.28
2023-05-09T15:23:28.123Z,10.18
2023-05-09T15:25:55.297Z,11.98
2023-05-09T15:28:22.528Z,10.23
2023-05-09T15:30:49.641Z,7.25
2023-05-09T15:33:16.594Z,9.43
2023-05-09T15:35:44.331Z,6.80
2023-05-09T15:38:12.465Z,10.13
2023-05-09T15:40:41.250Z,6.70
2023-05-09T15:43:08.585Z,8.52
2023-05-09T15:45:37.531Z,7.95
2023-05-09T15:48:04.945Z,8.75
2023-05-09T15:50:31.952Z,10.77
2023-05-09T15:52:58.926Z,8.15
2023-05-09T15:55:28.034Z,11.23
2023-05-09T15:57:55.842Z,8.80
2023-05-09T16:00:23.045Z,8.40
2023-05-09T16:02:50.497Z,12.70
2023-05-09T16:05:17.899Z,12.35
2023-05-09T16:07:47.037Z,8.40
2023-05-09T16:10:14.337Z,6.93
2023-05-09T16:12:41.516Z,9.43
2023-05-09T16:15:08.969Z,7.93
2023-05-09T16:17:35.969Z,9.88
2023-05-09T16:20:03.038Z,9.50
2023-05-09T16:22:30.215Z,8.73
2023-05-09T16:24:57.219Z,8.20
2023-05-09T16:27:24.225Z,7.63
2023-05-09T16:29:51.237Z,8.38
2023-05-09T16:32:18.318Z,8.30
2023-05-09T16:34:45.270Z,9.38
2023-05-09T16:37:12.585Z,8.93
2023-05-09T16:39:39.587Z,9.38
2023-05-09T16:42:06.685Z,12.90
2023-05-09T16:44:33.704Z,9.15
2023-05-09T16:47:01.286Z,10.25
2023-05-09T16:49:28.620Z,9.15
2023-05-09T16:51:55.652Z,7.65
2023-05-09T16:54:23.428Z,9.77
2023-05-09T16:56:50.431Z,10.23
2023-05-09T16:59:17.693Z,8.50
2023-05-09T17:01:44.654Z,6.93
2023-05-09T17:04:11.798Z,9.30
2023-05-09T17:06:38.862Z,7.63
2023-05-09T17:09:05.963Z,7.85
2023-05-09T17:11:33.621Z,9.63
2023-05-09T17:14:02.611Z,8.90
2023-05-09T17:16:29.805Z,9.55
2023-05-09T17:18:56.830Z,10.45
2023-05-09T17:21:23.840Z,8.18
2023-05-09T17:23:53.981Z,10.38
2023-05-09T17:26:21.577Z,9.77
2023-05-09T17:28:49.095Z,11.02
2023-05-09T17:31:16.165Z,6.40
2023-05-09T17:33:43.857Z,8.75
2023-05-09T17:36:10.894Z,6.70
2023-05-09T17:38:38.079Z,8.27
2023-05-09T17:41:05.105Z,9.18
2023-05-09T17:43:32.143Z,8.85
2023-05-09T17:45:59.369Z,9.95
2023-05-09T17:48:26.391Z,12.43
2023-05-09T17:50:53.573Z,9.57
2023-05-09T17:53:20.664Z,9.02
2023-05-09T17:55:47.978Z,12.95
2023-05-09T17:58:15.309Z,10.00
2023-05-09T18:00:42.444Z,9.13
2023-05-09T18:03:09.486Z,9.52
2023-05-09T18:05:36.524Z,9.43
2023-05-09T18:08:03.777Z,8.77
2023-05-09T18:10:30.780Z,8.98
2023-05-09T18:12:57.818Z,6.38
2023-05-09T18:15:25.706Z,12.20
2023-05-09T18:17:53.970Z,8.10
2023-05-09T18:20:21.275Z,8.20
2023-05-09T18:22:48.283Z,9.13
2023-05-09T18:25:15.308Z,6.53
2023-05-09T18:27:42.242Z,8.55
2023-05-09T18:30:09.617Z,7.80
2023-05-09T18:32:36.603Z,8.20
2023-05-09T18:35:04.268Z,9.68
2023-05-09T18:37:31.307Z,7.43
2023-05-09T18:39:58.300Z,7.50
2023-05-09T18:42:25.379Z,9.20
2023-05-09T18:44:52.559Z,8.80
2023-05-09T18:47:19.602Z,9.95
2023-05-09T18:49:47.703Z,7.07
2023-05-09T18:52:15.327Z,9.32
2023-05-09T18:54:42.391Z,15.10
2023-05-09T18:57:10.124Z,12.45
2023-05-09T18:59:37.726Z,11.50
2023-05-09T19:02:04.805Z,11.80
2023-05-09T19:04:31.888Z,11.40
2023-05-09T19:06:59.688Z,11.30
2023-05-09T19:09:26.946Z,11.32
2023-05-09T19:11:54.218Z,11.27
2023-05-09T19:14:21.162Z,10.48
2023-05-09T19:16:48.370Z,10.27
2023-05-09T19:19:15.924Z,10.50
2023-05-09T19:21:43.190Z,10.75
2023-05-09T19:24:10.298Z,10.82
2023-05-09T19:26:37.266Z,9.93
2023-05-09T19:29:08.230Z,10.13
2023-05-09T19:31:37.666Z,16.17
2023-05-09T19:34:04.659Z,10.70
2023-05-09T19:36:31.729Z,12.80
2023-05-09T19:38:58.828Z,11.20
2023-05-09T19:41:26.165Z,10.85
2023-05-09T19:43:53.547Z,10.40
2023-05-09T19:46:22.445Z,10.27
2023-05-09T19:48:49.536Z,10.05
2023-05-09T19:51:16.594Z,10.05
2023-05-09T19:53:43.661Z,9.70
2023-05-09T19:56:10.830Z,11.63
2023-05-09T19:58:37.890Z,9.88
2023-05-09T20:01:06.863Z,11.05
2023-05-09T20:03:37.107Z,11.80
2023-05-09T20:06:04.467Z,9.95
2023-05-09T20:08:31.428Z,11.68
2023-05-09T20:11:00.255Z,10.20
2023-05-09T20:13:27.861Z,10.90
2023-05-09T20:15:55.397Z,10.55
2023-05-09T20:18:22.383Z,9.75
2023-05-09T20:20:49.391Z,10.85
2023-05-09T20:23:16.394Z,9.48
2023-05-09T20:25:43.368Z,11.05
2023-05-09T20:28:12.032Z,10.25
2023-05-09T20:30:39.044Z,10.43
2023-05-09T20:33:06.090Z,10.88
2023-05-09T20:35:33.198Z,11.38
2023-05-09T20:38:00.166Z,11.80
2023-05-09T20:40:27.133Z,11.00
2023-05-09T20:42:54.220Z,11.57
2023-05-09T20:45:21.344Z,10.43
2023-05-09T20:47:48.402Z,11.88
2023-05-09T20:50:15.692Z,12.40
2023-05-09T20:52:42.869Z,13.27
2023-05-09T20:55:10.003Z,12.20
2023-05-09T20:57:36.979Z,12.68
2023-05-09T21:00:04.282Z,14.57
2023-05-09T21:02:31.391Z,13.00
2023-05-09T21:04:58.420Z,13.77
2023-05-09T21:07:25.433Z,12.80
2023-05-09T21:09:54.187Z,11.95
2023-05-09T21:12:21.269Z,12.02
2023-05-09T21:14:49.165Z,13.00
2023-05-09T21:17:16.392Z,13.77
2023-05-09T21:19:43.522Z,10.98
2023-05-09T21:22:10.489Z,13.45
2023-05-09T21:24:37.535Z,12.85
2023-05-09T21:27:04.995Z,12.52
2023-05-09T21:29:31.961Z,13.48
2023-05-09T21:31:58.915Z,14.32
2023-05-09T21:34:25.981Z,12.77
2023-05-09T21:36:52.990Z,13.00
2023-05-09T21:39:19.916Z,14.80
2023-05-09T21:41:46.877Z,12.30
2023-05-09T21:44:13.946Z,12.55
2023-05-09T21:46:41.425Z,12.77
2023-05-09T21:49:08.427Z,13.25
2023-05-09T21:51:35.387Z,12.32
2023-05-09T21:54:02.451Z,14.80
2023-05-09T21:56:29.778Z,14.57
2023-05-09T21:58:56.798Z,14.35
2023-05-09T22:01:23.874Z,18.40
2023-05-09T22:03:51.842Z,17.63
2023-05-09T22:06:18.891Z,15.65
2023-05-09T22:08:45.911Z,14.88
2023-05-09T22:11:14.788Z,15.88
2023-05-09T22:13:42.649Z,17.73
2023-05-09T22:16:09.893Z,16.27
2023-05-09T22:18:37.321Z,15.85
2023-05-09T22:21:04.552Z,16.23
2023-05-09T22:23:31.599Z,14.50
2023-05-09T22:25:58.552Z,16.42
2023-05-09T22:28:25.609Z,17.33
2023-05-09T22:30:52.622Z,16.00
2023-05-09T22:33:20.380Z,15.93
2023-05-09T22:35:47.469Z,18.02
2023-05-09T22:38:14.597Z,16.25
2023-05-09T22:40:41.631Z,17.60
2023-05-09T22:43:10.639Z,17.70
2023-05-09T22:45:37.924Z,16.90
2023-05-09T22:48:05.360Z,18.23
2023-05-09T22:50:32.493Z,16.40
2023-05-09T22:53:00.489Z,18.17
2023-05-09T22:55:27.752Z,16.40
2023-05-09T22:57:54.715Z,16.33
2023-05-09T23:00:21.999Z,15.23
2023-05-09T23:02:49.164Z,17.63
2023-05-09T23:05:16.266Z,15.82
2023-05-09T23:07:43.263Z,16.35
2023-05-09T23:10:10.526Z,16.15
2023-05-09T23:12:38.291Z,15.23
2023-05-09T23:15:07.527Z,15.98
2023-05-09T23:17:34.677Z,15.18
2023-05-09T23:20:01.788Z,16.15
2023-05-09T23:22:29.075Z,15.05
2023-05-09T23:24:56.274Z,16.20
2023-05-09T23:27:23.561Z,16.52
2023-05-09T23:29:50.618Z,17.00
2023-05-09T23:32:17.575Z,17.40
2023-05-09T23:34:44.596Z,17.10
2023-05-09T23:37:12.110Z,17.13
2023-05-09T23:39:39.061Z,16.33
2023-05-09T23:42:06.178Z,16.67
2023-05-09T23:44:33.332Z,17.35
2023-05-09T23:47:02.097Z,15.35
2023-05-09T23:49:29.220Z,15.68
2023-05-09T23:51:56.346Z,17.90
2023-05-09T23:54:24.552Z,16.67
2023-05-09T23:56:51.593Z,16.33
2023-05-09T23:59:18.570Z,15.02
